Time;durP1;ratioP1;P1;durP2;ratioP2;P2;SDS_P1;SDS_P2;PMS_P1;PMS_P2;Temp;Humidity;BMP_temperature;BMP_pressure;BME280_temperature;BME280_humidity;BME280_pressure;Samples;Min_cycle;Max_cycle;Signal;HPM_P1;HPM_P2
2022/05/16 00:01:09;;;;;;;10.47;8.27;;;;;;;;;;4957186;28;20398;-43
2022/05/16 00:03:35;;;;;;;13.23;8.17;;;;;;;;;;4954036;28;20702;-43
2022/05/16 00:06:01;;;;;;;12.73;8.50;;;;;;;;;;4956537;28;20178;-43
2022/05/16 00:08:27;;;;;;;12.90;9.40;;;;;;;;;;4957727;28;20477;-43
2022/05/16 00:10:54;;;;;;;11.50;8.40;;;;;;;;;;4956145;28;20289;-43
2022/05/16 00:13:21;;;;;;;12.73;9.00;;;;;;;;;;4954227;28;20212;-43
2022/05/16 00:15:47;;;;;;;10.53;8.40;;;;;;;;;;4958157;28;20174;-42
2022/05/16 00:18:13;;;;;;;10.23;8.33;;;;;;;;;;4958217;28;21004;-44
2022/05/16 00:20:40;;;;;;;12.00;8.60;;;;;;;;;;4955127;28;20178;-43
2022/05/16 00:23:06;;;;;;;15.00;9.07;;;;;;;;;;4956141;28;20647;-43
2022/05/16 00:25:32;;;;;;;10.47;7.80;;;;;;;;;;4959296;28;20630;-43
2022/05/16 00:27:58;;;;;;;12.57;7.43;;;;;;;;;;4958208;28;20188;-43
2022/05/16 00:30:24;;;;;;;14.23;8.07;;;;;;;;;;4956064;28;20299;-43
2022/05/16 00:32:50;;;;;;;9.60;7.43;;;;;;;;;;4959073;28;20206;-43
2022/05/16 00:35:18;;;;;;;9.33;7.53;;;;;;;;;;4955910;28;20603;-43
2022/05/16 00:37:44;;;;;;;10.93;7.60;;;;;;;;;;4954815;28;20996;-43
2022/05/16 00:40:11;;;;;;;11.40;8.10;;;;;;;;;;4954871;28;20174;-43
2022/05/16 00:42:37;;;;;;;11.70;7.67;;;;;;;;;;4957286;28;20194;-40
2022/05/16 00:45:04;;;;;;;7.80;7.00;;;;;;;;;;4955418;28;20189;-42
2022/05/16 00:47:30;;;;;;;9.00;7.47;;;;;;;;;;4957349;28;20178;-42
2022/05/16 00:49:57;;;;;;;10.53;7.83;;;;;;;;;;4958612;28;20660;-42
2022/05/16 00:52:33;;;;;;;16.53;9.00;;;;;;;;;;4956852;28;20272;-40
2022/05/16 00:55:14;;;;;;;12.30;8.57;;;;;;;;;;4953985;28;20538;-41
2022/05/16 00:57:45;;;;;;;10.67;7.93;;;;;;;;;;4958616;28;20864;-42
2022/05/16 01:00:17;;;;;;;9.47;8.30;;;;;;;;;;4951931;28;20175;-41
2022/05/16 01:05:31;;;;;;;10.87;7.87;;;;;;;;;;4957075;28;20665;-41
2022/05/16 01:07:59;;;;;;;10.83;8.00;;;;;;;;;;4953604;28;20182;-42
2022/05/16 01:10:25;;;;;;;10.73;8.07;;;;;;;;;;4957094;28;20455;-42
2022/05/16 01:12:52;;;;;;;11.63;8.73;;;;;;;;;;4953943;28;20233;-42
2022/05/16 01:15:18;;;;;;;11.10;8.13;;;;;;;;;;4959527;28;20174;-41
2022/05/16 01:17:44;;;;;;;11.30;8.43;;;;;;;;;;4959688;28;20190;-42
2022/05/16 01:20:11;;;;;;;11.47;7.93;;;;;;;;;;4957027;28;20206;-41
2022/05/16 01:22:38;;;;;;;11.53;8.43;;;;;;;;;;4953866;28;20656;-41
2022/05/16 01:25:09;;;;;;;9.37;7.77;;;;;;;;;;4955927;28;20618;-42
2022/05/16 01:27:44;;;;;;;9.20;7.93;;;;;;;;;;4958648;28;20185;-42
2022/05/16 01:30:11;;;;;;;10.40;7.70;;;;;;;;;;4955290;28;20177;-42
2022/05/16 01:32:37;;;;;;;12.77;8.27;;;;;;;;;;4953564;28;20217;-42
2022/05/16 01:35:03;;;;;;;14.40;8.53;;;;;;;;;;4954449;28;20452;-42
2022/05/16 01:40:14;;;;;;;12.63;8.80;;;;;;;;;;4954107;28;20193;-42
2022/05/16 01:42:41;;;;;;;11.90;8.50;;;;;;;;;;4960605;28;20226;-42
2022/05/16 01:45:08;;;;;;;13.70;9.77;;;;;;;;;;4960011;28;20275;-42
2022/05/16 01:47:34;;;;;;;18.03;10.50;;;;;;;;;;4961883;28;20197;-42
2022/05/16 01:50:00;;;;;;;16.20;10.00;;;;;;;;;;4956979;28;20362;-41
2022/05/16 01:52:26;;;;;;;14.87;10.13;;;;;;;;;;4959482;28;20210;-42
2022/05/16 01:54:53;;;;;;;14.03;10.60;;;;;;;;;;4956549;28;20178;-41
2022/05/16 01:57:19;;;;;;;11.93;9.90;;;;;;;;;;4956688;28;20213;-42
2022/05/16 01:59:45;;;;;;;14.97;11.50;;;;;;;;;;4952994;28;20902;-41
2022/05/16 02:02:11;;;;;;;15.80;11.10;;;;;;;;;;4958434;28;20279;-42
2022/05/16 02:04:38;;;;;;;13.73;11.03;;;;;;;;;;4955685;28;21072;-42
2022/05/16 02:07:04;;;;;;;16.57;11.37;;;;;;;;;;4956333;28;20340;-41
2022/05/16 02:09:30;;;;;;;16.60;10.97;;;;;;;;;;4955053;28;20196;-42
2022/05/16 02:11:56;;;;;;;18.07;11.33;;;;;;;;;;4954277;28;20478;-41
2022/05/16 02:14:23;;;;;;;15.37;11.50;;;;;;;;;;4961295;28;20220;-41
2022/05/16 02:16:49;;;;;;;13.67;10.80;;;;;;;;;;4959560;28;20234;-41
2022/05/16 02:19:16;;;;;;;12.67;9.77;;;;;;;;;;4956759;28;20506;-42
2022/05/16 02:24:39;;;;;;;11.60;9.83;;;;;;;;;;4958917;28;20197;-42
2022/05/16 02:27:06;;;;;;;14.80;10.53;;;;;;;;;;4959002;28;20583;-42
2022/05/16 02:29:34;;;;;;;13.67;10.53;;;;;;;;;;4956686;28;20220;-42
2022/05/16 02:32:00;;;;;;;13.50;9.60;;;;;;;;;;4956088;28;21024;-41
2022/05/16 02:34:26;;;;;;;13.83;9.60;;;;;;;;;;4954335;28;22265;-41
2022/05/16 02:36:52;;;;;;;13.47;9.60;;;;;;;;;;4961726;28;20186;-41
2022/05/16 02:39:19;;;;;;;11.87;9.20;;;;;;;;;;4958910;28;20202;-42
2022/05/16 02:41:45;;;;;;;12.97;9.17;;;;;;;;;;4958806;28;20237;-42
2022/05/16 02:44:12;;;;;;;15.57;10.50;;;;;;;;;;4959056;28;21150;-42
2022/05/16 02:46:38;;;;;;;17.63;10.40;;;;;;;;;;4963444;28;20237;-41
2022/05/16 02:49:04;;;;;;;12.57;9.97;;;;;;;;;;4940898;28;20179;-42
2022/05/16 02:51:31;;;;;;;13.13;9.27;;;;;;;;;;4954736;28;20324;-41
2022/05/16 02:53:57;;;;;;;13.33;9.13;;;;;;;;;;4955409;28;20698;-42
2022/05/16 02:56:23;;;;;;;12.30;9.73;;;;;;;;;;4959817;28;20178;-42
2022/05/16 02:58:49;;;;;;;13.47;9.50;;;;;;;;;;4956356;28;20186;-40
2022/05/16 03:01:15;;;;;;;19.97;11.10;;;;;;;;;;4956542;28;20229;-42
2022/05/16 03:03:42;;;;;;;14.37;11.17;;;;;;;;;;4936196;28;20186;-42
2022/05/16 03:06:08;;;;;;;16.13;11.90;;;;;;;;;;4959085;28;20177;-41
2022/05/16 03:08:35;;;;;;;15.07;11.97;;;;;;;;;;4957252;28;20587;-41
2022/05/16 03:11:01;;;;;;;18.20;11.90;;;;;;;;;;4959587;28;20186;-42
2022/05/16 03:13:28;;;;;;;18.43;11.17;;;;;;;;;;4960376;28;20814;-42
2022/05/16 03:15:54;;;;;;;16.30;12.77;;;;;;;;;;4958986;28;20178;-40
2022/05/16 03:18:20;;;;;;;17.23;11.93;;;;;;;;;;4959768;28;20833;-42
2022/05/16 03:20:46;;;;;;;16.90;13.60;;;;;;;;;;4957704;28;20228;-41
2022/05/16 03:23:12;;;;;;;17.53;13.20;;;;;;;;;;4954729;28;20194;-40
2022/05/16 03:25:38;;;;;;;19.33;14.07;;;;;;;;;;4958692;28;20193;-42
2022/05/16 03:28:04;;;;;;;22.73;14.70;;;;;;;;;;4958380;28;20688;-41
2022/05/16 03:30:30;;;;;;;21.63;16.60;;;;;;;;;;4954624;28;20183;-42
2022/05/16 03:32:56;;;;;;;21.50;15.63;;;;;;;;;;4957592;28;20208;-42
2022/05/16 03:35:23;;;;;;;19.93;16.10;;;;;;;;;;4960953;28;20210;-40
2022/05/16 03:37:49;;;;;;;24.20;16.63;;;;;;;;;;4957743;28;20193;-42
2022/05/16 03:42:59;;;;;;;25.00;16.37;;;;;;;;;;4959764;28;20208;-42
2022/05/16 03:45:26;;;;;;;20.93;16.70;;;;;;;;;;4959496;28;20405;-41
2022/05/16 03:47:52;;;;;;;20.47;15.40;;;;;;;;;;4956821;28;20192;-41
2022/05/16 03:50:18;;;;;;;18.30;14.10;;;;;;;;;;4958766;28;20182;-42
2022/05/16 03:52:44;;;;;;;17.17;12.57;;;;;;;;;;4956092;28;20209;-42
2022/05/16 03:55:13;;;;;;;19.43;13.17;;;;;;;;;;4951809;28;20663;-42
2022/05/16 03:57:40;;;;;;;17.87;13.20;;;;;;;;;;4959371;28;20186;-40
2022/05/16 04:00:09;;;;;;;19.20;13.77;;;;;;;;;;4958774;28;20583;-41
2022/05/16 04:02:37;;;;;;;19.40;14.07;;;;;;;;;;4955218;28;20993;-42
2022/05/16 04:05:04;;;;;;;21.33;13.97;;;;;;;;;;4954847;28;20820;-42
2022/05/16 04:07:31;;;;;;;22.07;16.03;;;;;;;;;;4958070;28;20185;-42
2022/05/16 04:09:57;;;;;;;23.40;18.07;;;;;;;;;;4954895;28;20185;-42
2022/05/16 04:12:23;;;;;;;28.67;19.20;;;;;;;;;;4956800;28;21095;-42
2022/05/16 04:14:49;;;;;;;29.77;22.50;;;;;;;;;;4952861;28;20170;-42
2022/05/16 04:17:16;;;;;;;33.93;22.80;;;;;;;;;;4956714;28;20182;-42
2022/05/16 04:19:42;;;;;;;31.20;22.23;;;;;;;;;;4952828;28;20994;-42
2022/05/16 04:22:08;;;;;;;38.63;25.73;;;;;;;;;;4952873;28;20189;-42
2022/05/16 04:24:35;;;;;;;39.70;25.47;;;;;;;;;;4955848;28;20441;-42
2022/05/16 04:27:01;;;;;;;39.20;27.30;;;;;;;;;;4950377;28;20205;-41
2022/05/16 04:29:27;;;;;;;51.37;29.27;;;;;;;;;;4954441;28;20496;-42
2022/05/16 04:31:53;;;;;;;47.63;26.40;;;;;;;;;;4957428;28;20754;-41
2022/05/16 04:34:20;;;;;;;35.23;23.10;;;;;;;;;;4954204;28;21083;-42
2022/05/16 04:36:46;;;;;;;35.47;23.87;;;;;;;;;;4927550;28;20171;-42
2022/05/16 04:39:12;;;;;;;36.13;22.17;;;;;;;;;;4957996;28;20269;-42
2022/05/16 04:44:23;;;;;;;31.00;19.17;;;;;;;;;;4953273;28;20209;-42
2022/05/16 04:46:49;;;;;;;29.20;18.70;;;;;;;;;;4954021;28;20679;-42
2022/05/16 04:49:15;;;;;;;27.97;18.20;;;;;;;;;;4943192;28;20182;-42
2022/05/16 04:51:42;;;;;;;30.67;18.93;;;;;;;;;;4956688;28;20734;-42
2022/05/16 04:54:08;;;;;;;23.70;16.60;;;;;;;;;;4953180;28;20186;-42
2022/05/16 04:56:35;;;;;;;29.60;17.27;;;;;;;;;;4958382;28;20190;-42
2022/05/16 04:59:02;;;;;;;27.17;16.77;;;;;;;;;;4958347;28;20188;-42
2022/05/16 05:01:28;;;;;;;26.67;15.37;;;;;;;;;;4957830;28;20193;-43
2022/05/16 05:03:54;;;;;;;30.17;15.60;;;;;;;;;;4956598;28;20329;-42
2022/05/16 05:06:20;;;;;;;21.60;15.43;;;;;;;;;;4938723;28;20770;-43
2022/05/16 05:08:47;;;;;;;27.20;15.97;;;;;;;;;;4961955;28;20178;-42
2022/05/16 05:16:43;;;;;;;29.60;17.57;;;;;;;;;;4956186;28;20257;-43
2022/05/16 05:19:09;;;;;;;24.30;15.53;;;;;;;;;;4964887;28;20171;-43
2022/05/16 05:21:35;;;;;;;23.07;15.40;;;;;;;;;;4961822;28;20205;-43
2022/05/16 05:24:01;;;;;;;28.43;17.17;;;;;;;;;;4959409;28;20751;-42
2022/05/16 05:26:27;;;;;;;23.93;17.43;;;;;;;;;;4961068;28;20208;-43
2022/05/16 05:28:53;;;;;;;25.00;16.90;;;;;;;;;;4964144;28;20174;-42
2022/05/16 05:31:25;;;;;;;28.87;16.20;;;;;;;;;;4962370;28;20178;-43
2022/05/16 05:33:51;;;;;;;24.77;14.93;;;;;;;;;;4957426;28;20241;-43
2022/05/16 05:36:17;;;;;;;21.43;13.03;;;;;;;;;;4962503;28;20285;-43
2022/05/16 05:38:43;;;;;;;17.80;12.57;;;;;;;;;;4964664;28;20181;-42
2022/05/16 05:41:10;;;;;;;17.43;11.13;;;;;;;;;;4958439;28;20177;-43
2022/05/16 05:43:36;;;;;;;17.93;11.50;;;;;;;;;;4958846;28;20194;-43
2022/05/16 05:46:03;;;;;;;22.73;11.23;;;;;;;;;;4965087;28;20489;-43
2022/05/16 05:48:30;;;;;;;21.80;10.37;;;;;;;;;;4964175;28;20174;-43
2022/05/16 05:50:56;;;;;;;19.70;10.60;;;;;;;;;;4963498;28;20252;-41
2022/05/16 05:53:22;;;;;;;16.03;9.13;;;;;;;;;;4960051;28;20271;-43
2022/05/16 05:55:48;;;;;;;16.60;9.37;;;;;;;;;;4965305;28;20525;-43
2022/05/16 05:58:17;;;;;;;16.07;8.43;;;;;;;;;;4966497;28;20659;-43
2022/05/16 06:00:44;;;;;;;18.40;8.53;;;;;;;;;;4962644;28;20178;-43
2022/05/16 06:03:10;;;;;;;15.27;8.40;;;;;;;;;;4961723;28;20183;-43
2022/05/16 06:05:36;;;;;;;15.03;9.40;;;;;;;;;;4964514;28;20237;-43
2022/05/16 06:08:03;;;;;;;23.17;11.37;;;;;;;;;;4933730;28;20192;-43
2022/05/16 06:10:29;;;;;;;18.47;11.60;;;;;;;;;;4959491;28;20293;-43
2022/05/16 06:12:55;;;;;;;22.33;13.83;;;;;;;;;;4962083;28;20357;-43
2022/05/16 06:15:22;;;;;;;22.77;13.10;;;;;;;;;;4959114;28;20177;-42
2022/05/16 06:17:49;;;;;;;25.03;12.93;;;;;;;;;;4960123;28;20994;-43
2022/05/16 06:20:15;;;;;;;20.97;12.13;;;;;;;;;;4963973;28;20182;-42
2022/05/16 06:22:41;;;;;;;21.47;11.90;;;;;;;;;;4961719;28;20185;-43
2022/05/16 06:27:56;;;;;;;18.10;9.53;;;;;;;;;;4959202;28;20197;-43
2022/05/16 06:30:23;;;;;;;17.00;8.53;;;;;;;;;;4961628;28;20725;-43
2022/05/16 06:32:49;;;;;;;15.83;7.27;;;;;;;;;;4961034;28;20217;-43
2022/05/16 06:35:16;;;;;;;14.10;7.50;;;;;;;;;;4955972;28;20180;-43
2022/05/16 06:37:42;;;;;;;12.00;5.90;;;;;;;;;;4965063;28;20236;-43
2022/05/16 06:40:08;;;;;;;14.37;6.13;;;;;;;;;;4962731;28;20181;-43
2022/05/16 06:42:34;;;;;;;11.93;5.90;;;;;;;;;;4958710;28;20191;-43
2022/05/16 06:45:00;;;;;;;9.67;4.80;;;;;;;;;;4956608;28;20900;-43
2022/05/16 06:47:27;;;;;;;12.27;5.30;;;;;;;;;;4960303;28;20284;-42
2022/05/16 06:49:53;;;;;;;7.93;4.97;;;;;;;;;;4962865;28;20196;-43
2022/05/16 06:52:20;;;;;;;11.13;5.07;;;;;;;;;;4955644;28;20201;-42
2022/05/16 06:54:46;;;;;;;12.13;5.17;;;;;;;;;;4957977;28;20841;-43
2022/05/16 06:57:12;;;;;;;11.93;5.50;;;;;;;;;;4961874;28;20201;-43
2022/05/16 06:59:38;;;;;;;10.87;5.40;;;;;;;;;;4962982;28;20361;-43
2022/05/16 07:02:05;;;;;;;13.23;5.13;;;;;;;;;;4955334;28;20245;-44
2022/05/16 07:04:32;;;;;;;10.70;5.23;;;;;;;;;;4958461;28;20691;-42
2022/05/16 07:06:58;;;;;;;9.70;4.80;;;;;;;;;;4958600;28;20268;-43
2022/05/16 07:09:24;;;;;;;12.03;5.53;;;;;;;;;;4960460;28;20307;-43
2022/05/16 07:11:50;;;;;;;9.30;5.17;;;;;;;;;;4957856;28;20492;-43
2022/05/16 07:14:17;;;;;;;10.30;5.30;;;;;;;;;;4959210;28;20174;-42
2022/05/16 07:16:43;;;;;;;10.37;4.77;;;;;;;;;;4960219;28;20701;-43
2022/05/16 07:19:09;;;;;;;11.87;5.70;;;;;;;;;;4956716;28;20602;-44
2022/05/16 07:21:35;;;;;;;10.10;5.37;;;;;;;;;;4953666;28;20605;-43
2022/05/16 07:24:02;;;;;;;11.00;5.37;;;;;;;;;;4953228;28;20673;-43
2022/05/16 07:29:12;;;;;;;11.73;4.83;;;;;;;;;;4955326;28;20929;-43
2022/05/16 07:31:39;;;;;;;11.13;5.30;;;;;;;;;;4955347;28;20329;-43
2022/05/16 07:34:05;;;;;;;10.40;5.23;;;;;;;;;;4959362;28;20182;-43
2022/05/16 07:36:31;;;;;;;10.30;4.77;;;;;;;;;;4961834;28;20205;-44
2022/05/16 07:38:57;;;;;;;11.70;4.87;;;;;;;;;;4958797;28;20173;-44
2022/05/16 07:41:23;;;;;;;14.93;4.93;;;;;;;;;;4954813;28;20176;-43
2022/05/16 07:43:49;;;;;;;8.00;4.70;;;;;;;;;;4916012;28;1175035;-43
2022/05/16 07:46:15;;;;;;;10.67;4.37;;;;;;;;;;4962640;28;20179;-43
2022/05/16 07:48:42;;;;;;;9.57;4.10;;;;;;;;;;4954862;28;20186;-44
2022/05/16 07:51:09;;;;;;;8.70;4.70;;;;;;;;;;4956015;28;20507;-42
2022/05/16 07:53:35;;;;;;;8.37;4.77;;;;;;;;;;4956980;28;20746;-43
2022/05/16 07:56:03;;;;;;;8.67;4.30;;;;;;;;;;4956140;28;20170;-43
2022/05/16 07:58:29;;;;;;;11.30;4.80;;;;;;;;;;4956708;28;20170;-43
2022/05/16 08:00:56;;;;;;;8.20;4.10;;;;;;;;;;4958211;28;20481;-43
2022/05/16 08:03:23;;;;;;;8.93;4.13;;;;;;;;;;4959361;28;20292;-43
2022/05/16 08:05:49;;;;;;;10.07;4.60;;;;;;;;;;4954938;28;20601;-43
2022/05/16 08:11:01;;;;;;;12.67;4.77;;;;;;;;;;4958383;28;20281;-44
2022/05/16 08:13:27;;;;;;;9.77;4.20;;;;;;;;;;4961656;28;20240;-43
2022/05/16 08:15:54;;;;;;;11.93;4.60;;;;;;;;;;4952780;28;20173;-43
2022/05/16 08:18:20;;;;;;;8.77;4.80;;;;;;;;;;4953325;28;20175;-43
2022/05/16 08:20:47;;;;;;;8.30;4.37;;;;;;;;;;4952494;28;20209;-43
2022/05/16 08:23:15;;;;;;;10.40;4.90;;;;;;;;;;4952748;28;20185;-44
2022/05/16 08:25:45;;;;;;;9.90;4.90;;;;;;;;;;4950498;28;20661;-43
2022/05/16 08:28:11;;;;;;;9.43;4.67;;;;;;;;;;4950233;28;20225;-43
2022/05/16 08:30:37;;;;;;;11.20;5.37;;;;;;;;;;4947303;28;20192;-43
2022/05/16 08:33:04;;;;;;;12.10;5.23;;;;;;;;;;4953141;28;20213;-44
2022/05/16 08:35:30;;;;;;;9.17;5.13;;;;;;;;;;4955440;28;20178;-44
2022/05/16 08:40:55;;;;;;;15.30;4.93;;;;;;;;;;4949256;28;20322;-44
2022/05/16 08:43:40;;;;;;;8.53;5.10;;;;;;;;;;4949500;28;20205;-44
2022/05/16 08:46:25;;;;;;;10.50;4.70;;;;;;;;;;4953424;28;20293;-44
2022/05/16 08:48:56;;;;;;;12.73;5.07;;;;;;;;;;4956661;28;20182;-44
2022/05/16 08:51:23;;;;;;;12.03;4.33;;;;;;;;;;4961744;28;20181;-43
2022/05/16 08:54:08;;;;;;;11.30;5.27;;;;;;;;;;4955334;28;20305;-42
2022/05/16 08:56:36;;;;;;;12.80;5.40;;;;;;;;;;4956452;28;20185;-43
2022/05/16 08:59:06;;;;;;;9.13;4.73;;;;;;;;;;4961088;28;20672;-44
2022/05/16 09:01:37;;;;;;;10.20;5.87;;;;;;;;;;4959321;28;20477;-43
2022/05/16 09:04:05;;;;;;;12.43;5.00;;;;;;;;;;4957235;28;20600;-43
2022/05/16 09:06:54;;;;;;;7.17;4.60;;;;;;;;;;4953943;28;20179;-44
2022/05/16 09:09:22;;;;;;;7.80;4.80;;;;;;;;;;4951290;28;20330;-43
2022/05/16 09:11:48;;;;;;;8.93;4.50;;;;;;;;;;4954178;28;20534;-44
2022/05/16 09:14:14;;;;;;;7.60;4.57;;;;;;;;;;4957677;28;20264;-44
2022/05/16 09:17:00;;;;;;;10.07;4.63;;;;;;;;;;4960961;28;20178;-43
2022/05/16 09:19:32;;;;;;;9.77;4.37;;;;;;;;;;4964500;28;20714;-43
2022/05/16 09:22:03;;;;;;;9.50;4.87;;;;;;;;;;4956769;28;20182;-44
2022/05/16 09:24:37;;;;;;;15.40;5.20;;;;;;;;;;4963321;28;20599;-49
2022/05/16 09:27:12;;;;;;;10.83;4.40;;;;;;;;;;4970217;28;20274;-44
2022/05/16 09:29:42;;;;;;;13.77;5.13;;;;;;;;;;4963413;28;20188;-44
2022/05/16 09:32:35;;;;;;;10.57;4.70;;;;;;;;;;4959741;28;20194;-43
2022/05/16 09:35:01;;;;;;;9.30;4.50;;;;;;;;;;4957246;28;20192;-43
2022/05/16 09:37:28;;;;;;;11.70;4.40;;;;;;;;;;4968363;28;20170;-43
2022/05/16 09:39:54;;;;;;;8.43;4.57;;;;;;;;;;4962241;28;20181;-44
2022/05/16 09:42:29;;;;;;;10.93;4.00;;;;;;;;;;4965893;28;20272;-44
2022/05/16 09:44:55;;;;;;;9.63;4.57;;;;;;;;;;4960725;28;20189;-43
2022/05/16 09:47:22;;;;;;;9.27;4.50;;;;;;;;;;4963272;28;20692;-44
2022/05/16 09:50:04;;;;;;;9.23;4.40;;;;;;;;;;4960628;28;20184;-44
2022/05/16 09:52:32;;;;;;;7.33;4.57;;;;;;;;;;4963869;28;20205;-43
2022/05/16 09:54:59;;;;;;;13.80;5.23;;;;;;;;;;4959343;28;20356;-43
2022/05/16 09:57:26;;;;;;;10.17;4.63;;;;;;;;;;4967244;28;20201;-43
2022/05/16 09:59:59;;;;;;;11.80;4.80;;;;;;;;;;4962809;28;20372;-43
2022/05/16 10:02:25;;;;;;;11.57;4.93;;;;;;;;;;4962430;28;20564;-42
2022/05/16 10:04:55;;;;;;;13.07;5.40;;;;;;;;;;4964009;28;21143;-43
2022/05/16 10:07:32;;;;;;;8.07;4.60;;;;;;;;;;4966331;28;20178;-43
2022/05/16 10:09:58;;;;;;;9.20;4.50;;;;;;;;;;4962180;28;20186;-43
2022/05/16 10:12:26;;;;;;;13.60;5.03;;;;;;;;;;4960068;28;20194;-43
2022/05/16 10:14:52;;;;;;;12.80;5.07;;;;;;;;;;4964530;28;20301;-43
2022/05/16 10:17:24;;;;;;;13.80;5.30;;;;;;;;;;4960805;28;20177;-43
2022/05/16 10:19:53;;;;;;;7.47;4.43;;;;;;;;;;4960300;28;20892;-43
2022/05/16 10:22:21;;;;;;;9.43;4.67;;;;;;;;;;4962405;28;20182;-43
2022/05/16 10:24:52;;;;;;;9.13;4.20;;;;;;;;;;4963005;28;20183;-43
2022/05/16 10:27:20;;;;;;;6.20;4.13;;;;;;;;;;4961229;28;20189;-43
2022/05/16 10:29:48;;;;;;;10.90;5.07;;;;;;;;;;4960803;28;20182;-43
2022/05/16 10:35:28;;;;;;;8.53;4.53;;;;;;;;;;4964694;28;20202;-43
2022/05/16 10:37:55;;;;;;;8.80;5.10;;;;;;;;;;4962093;28;20200;-43
2022/05/16 10:40:30;;;;;;;14.30;5.03;;;;;;;;;;4955530;28;20181;-43
2022/05/16 10:43:02;;;;;;;8.20;4.57;;;;;;;;;;4960340;28;20220;-43
2022/05/16 10:45:30;;;;;;;6.60;4.30;;;;;;;;;;4955152;28;21039;-43
2022/05/16 10:48:05;;;;;;;7.33;4.90;;;;;;;;;;4955986;28;20672;-43
2022/05/16 10:50:39;;;;;;;12.03;5.30;;;;;;;;;;4960795;28;20523;-44
2022/05/16 10:53:13;;;;;;;12.40;5.10;;;;;;;;;;4962079;28;20198;-43
2022/05/16 10:55:42;;;;;;;10.00;4.67;;;;;;;;;;4961223;28;20252;-43
2022/05/16 10:58:15;;;;;;;9.47;5.23;;;;;;;;;;4963479;28;20253;-43
2022/05/16 11:00:51;;;;;;;10.40;5.30;;;;;;;;;;4962047;28;20342;-43
2022/05/16 11:03:20;;;;;;;11.63;4.90;;;;;;;;;;4959780;28;20182;-43
2022/05/16 11:05:46;;;;;;;9.57;5.13;;;;;;;;;;4958441;28;20584;-43
2022/05/16 11:08:25;;;;;;;13.07;5.37;;;;;;;;;;4962719;28;20660;-43
2022/05/16 11:10:55;;;;;;;12.43;5.17;;;;;;;;;;4960710;28;20194;-43
2022/05/16 11:13:36;;;;;;;10.63;5.40;;;;;;;;;;4955311;28;20393;-43
2022/05/16 11:16:02;;;;;;;10.47;5.63;;;;;;;;;;4960987;28;20174;-43
2022/05/16 11:18:28;;;;;;;9.00;5.57;;;;;;;;;;4960391;28;20181;-43
2022/05/16 11:20:56;;;;;;;8.67;5.17;;;;;;;;;;4957217;28;20174;-42
2022/05/16 11:23:30;;;;;;;12.00;5.60;;;;;;;;;;4965298;28;20282;-42
2022/05/16 11:26:04;;;;;;;8.80;5.30;;;;;;;;;;4961353;28;20421;-43
2022/05/16 11:28:39;;;;;;;8.83;5.10;;;;;;;;;;4935310;28;20627;-42
2022/05/16 11:31:19;;;;;;;10.10;5.50;;;;;;;;;;4961302;28;21472;-43
2022/05/16 11:33:53;;;;;;;11.53;5.37;;;;;;;;;;4961904;28;20240;-43
2022/05/16 11:36:22;;;;;;;10.10;5.10;;;;;;;;;;4956771;28;20228;-43
2022/05/16 11:39:05;;;;;;;10.53;5.43;;;;;;;;;;4958037;28;20179;-43
2022/05/16 11:41:50;;;;;;;10.37;5.53;;;;;;;;;;4959304;28;20285;-43
2022/05/16 11:44:23;;;;;;;8.73;5.10;;;;;;;;;;4960364;28;20196;-42
2022/05/16 11:46:53;;;;;;;12.80;5.50;;;;;;;;;;4959521;28;20189;-42
2022/05/16 11:49:23;;;;;;;10.97;5.33;;;;;;;;;;4950413;28;20504;-43
2022/05/16 11:52:05;;;;;;;6.93;4.93;;;;;;;;;;4953689;28;20812;-43
2022/05/16 11:54:37;;;;;;;13.33;5.83;;;;;;;;;;4960308;28;20177;-43
2022/05/16 12:03:06;;;;;;;13.30;5.57;;;;;;;;;;4939670;28;20752;-43
2022/05/16 12:05:38;;;;;;;10.77;5.47;;;;;;;;;;4960318;28;20308;-43
2022/05/16 12:08:13;;;;;;;9.33;5.53;;;;;;;;;;4957250;28;20177;-42
2022/05/16 12:10:57;;;;;;;13.53;5.63;;;;;;;;;;4957735;28;20188;-42
2022/05/16 12:13:28;;;;;;;8.93;5.10;;;;;;;;;;4962095;28;20228;-43
2022/05/16 12:16:16;;;;;;;8.50;5.53;;;;;;;;;;4958561;28;20228;-43
2022/05/16 12:19:02;;;;;;;11.17;5.77;;;;;;;;;;4953244;28;20615;-44
2022/05/16 12:21:35;;;;;;;8.27;5.90;;;;;;;;;;4958415;28;20245;-42
2022/05/16 12:24:33;;;;;;;9.40;5.60;;;;;;;;;;4957633;28;20208;-43
2022/05/16 12:26:59;;;;;;;9.23;5.53;;;;;;;;;;4915013;28;20190;-43
2022/05/16 12:29:39;;;;;;;16.97;5.87;;;;;;;;;;4961852;28;20252;-43
2022/05/16 12:32:05;;;;;;;10.17;6.27;;;;;;;;;;4957040;28;20229;-43
2022/05/16 12:34:37;;;;;;;14.57;7.00;;;;;;;;;;4960023;28;20453;-43
2022/05/16 12:37:05;;;;;;;13.03;6.13;;;;;;;;;;4953378;28;20957;-44
2022/05/16 12:39:34;;;;;;;10.27;5.87;;;;;;;;;;4958518;28;20520;-43
2022/05/16 12:42:20;;;;;;;12.63;5.70;;;;;;;;;;4959266;28;20781;-43
2022/05/16 12:44:47;;;;;;;10.50;5.50;;;;;;;;;;4954502;28;20285;-43
2022/05/16 12:47:13;;;;;;;15.10;6.33;;;;;;;;;;4960207;28;20697;-43
2022/05/16 12:49:56;;;;;;;10.40;5.03;;;;;;;;;;4960900;28;20174;-44
2022/05/16 12:52:31;;;;;;;11.20;5.87;;;;;;;;;;4956145;28;21488;-44
2022/05/16 12:55:16;;;;;;;8.23;4.80;;;;;;;;;;4957145;28;21790;-44
2022/05/16 12:57:48;;;;;;;8.83;5.10;;;;;;;;;;4960438;28;20174;-44
2022/05/16 13:00:17;;;;;;;8.87;5.80;;;;;;;;;;4954511;28;20657;-43
2022/05/16 13:02:50;;;;;;;8.57;5.80;;;;;;;;;;4955844;28;20503;-43
2022/05/16 13:05:25;;;;;;;9.13;5.40;;;;;;;;;;4956732;28;20182;-43
2022/05/16 13:07:54;;;;;;;9.63;5.40;;;;;;;;;;4960159;28;20260;-43
2022/05/16 13:10:34;;;;;;;12.87;5.20;;;;;;;;;;4940570;28;20681;-42
2022/05/16 13:13:00;;;;;;;9.67;5.27;;;;;;;;;;4956895;28;20626;-42
2022/05/16 13:15:39;;;;;;;11.77;5.47;;;;;;;;;;4957095;28;20179;-43
2022/05/16 13:18:09;;;;;;;7.17;5.00;;;;;;;;;;4961147;28;20180;-43
2022/05/16 13:20:36;;;;;;;6.97;4.80;;;;;;;;;;4954825;28;20202;-43
2022/05/16 13:23:03;;;;;;;9.47;5.30;;;;;;;;;;4957004;28;20253;-43
2022/05/16 13:25:30;;;;;;;10.67;5.50;;;;;;;;;;4955914;28;20685;-44
2022/05/16 13:30:49;;;;;;;9.50;4.90;;;;;;;;;;4927820;28;20191;-43
2022/05/16 13:33:29;;;;;;;9.47;5.27;;;;;;;;;;4941142;28;21071;-43
2022/05/16 13:35:55;;;;;;;7.87;5.30;;;;;;;;;;4964321;28;20251;-43
2022/05/16 13:38:21;;;;;;;10.20;4.90;;;;;;;;;;4962674;28;20960;-43
2022/05/16 13:40:50;;;;;;;7.63;4.70;;;;;;;;;;4958955;28;20718;-42
2022/05/16 13:43:24;;;;;;;9.37;4.93;;;;;;;;;;4961823;28;20219;-43
2022/05/16 13:46:04;;;;;;;9.47;5.23;;;;;;;;;;4964194;28;20186;-42
2022/05/16 13:48:31;;;;;;;7.30;4.67;;;;;;;;;;4959193;28;20199;-43
2022/05/16 13:50:59;;;;;;;11.47;5.50;;;;;;;;;;4962937;28;20646;-44
2022/05/16 13:53:26;;;;;;;9.97;5.30;;;;;;;;;;4961231;28;20769;-43
2022/05/16 13:55:52;;;;;;;8.33;4.70;;;;;;;;;;4961769;28;20726;-44
2022/05/16 13:58:18;;;;;;;7.87;4.90;;;;;;;;;;4962218;28;20173;-44
2022/05/16 14:00:46;;;;;;;7.97;4.73;;;;;;;;;;4962954;28;20298;-43
2022/05/16 14:03:28;;;;;;;8.47;5.00;;;;;;;;;;4962084;28;20190;-43
2022/05/16 14:05:55;;;;;;;8.23;5.07;;;;;;;;;;4958686;28;20232;-43
2022/05/16 14:08:32;;;;;;;9.37;5.23;;;;;;;;;;4962715;28;20226;-44
2022/05/16 14:10:58;;;;;;;6.50;4.50;;;;;;;;;;4956480;28;20207;-43
2022/05/16 14:13:29;;;;;;;7.87;4.83;;;;;;;;;;4960274;28;20205;-43
2022/05/16 14:15:56;;;;;;;6.93;4.80;;;;;;;;;;4962688;28;20181;-43
2022/05/16 14:18:24;;;;;;;6.63;4.40;;;;;;;;;;4958686;28;21007;-43
2022/05/16 14:21:01;;;;;;;6.17;4.70;;;;;;;;;;4957199;28;20178;-43
2022/05/16 14:23:27;;;;;;;9.37;4.33;;;;;;;;;;4962391;28;20391;-44
2022/05/16 14:25:54;;;;;;;10.20;4.80;;;;;;;;;;4962790;28;21266;-43
2022/05/16 14:28:26;;;;;;;9.53;4.37;;;;;;;;;;4964777;28;20179;-43
2022/05/16 14:30:52;;;;;;;5.67;4.07;;;;;;;;;;4962421;28;20566;-43
2022/05/16 14:33:19;;;;;;;6.30;4.10;;;;;;;;;;4959758;28;20201;-43
2022/05/16 14:36:05;;;;;;;9.20;4.40;;;;;;;;;;4964627;28;20181;-43
2022/05/16 14:38:48;;;;;;;10.03;4.40;;;;;;;;;;4961924;28;20325;-43
2022/05/16 14:41:16;;;;;;;5.70;4.50;;;;;;;;;;4959483;28;20540;-43
2022/05/16 14:43:54;;;;;;;8.27;4.60;;;;;;;;;;4960188;28;20405;-43
2022/05/16 14:49:05;;;;;;;8.10;4.20;;;;;;;;;;4960104;28;20282;-43
2022/05/16 14:51:33;;;;;;;6.50;4.40;;;;;;;;;;4961418;28;20232;-42
2022/05/16 14:54:00;;;;;;;8.10;4.60;;;;;;;;;;4959662;28;20332;-42
2022/05/16 14:56:29;;;;;;;9.53;4.53;;;;;;;;;;4958987;28;20189;-43
2022/05/16 14:58:55;;;;;;;10.47;5.10;;;;;;;;;;4960953;28;20201;-43
2022/05/16 15:04:06;;;;;;;7.57;4.50;;;;;;;;;;4957445;28;20244;-43
2022/05/16 15:06:36;;;;;;;7.70;4.40;;;;;;;;;;4960269;28;20179;-43
2022/05/16 15:09:03;;;;;;;9.97;5.20;;;;;;;;;;4962019;28;20187;-43
2022/05/16 15:11:31;;;;;;;7.30;5.10;;;;;;;;;;4955926;28;20174;-42
2022/05/16 15:13:58;;;;;;;8.07;4.90;;;;;;;;;;4958702;28;20984;-43
2022/05/16 15:16:24;;;;;;;8.00;5.17;;;;;;;;;;4957185;28;20204;-41
2022/05/16 15:18:52;;;;;;;9.20;5.27;;;;;;;;;;4956258;28;20460;-43
2022/05/16 15:21:19;;;;;;;8.77;5.30;;;;;;;;;;4955303;28;20174;-43
2022/05/16 15:23:45;;;;;;;7.83;5.37;;;;;;;;;;4957328;28;20184;-43
2022/05/16 15:26:12;;;;;;;8.17;5.13;;;;;;;;;;4936900;28;20264;-43
2022/05/16 15:28:38;;;;;;;8.30;5.23;;;;;;;;;;4953633;28;20418;-43